LIPZ/VCE METAR and TAF weather

Enter ICAO airport designator
Station Type Date Time Source
LIPZ METAR 2022/10/01 08:20 UTC NOAA

LIPZ 010820Z 24010KT CAVOK 17/13 Q1015 NOSIG


Station Type Date Time Source
LIPZ Decoded METAR 2022/10/01 08:20 UTC NOAA

Venezia / Tessera, Italy (LIPZ) 45-30N 012-20E 6M
Oct 01, 2022 - 04:20 AM EDT / 2022.10.01 0820 UTC
Wind: from the WSW (240 degrees) at 12 MPH (10 KT):0
Visibility: greater than 7 mile(s):0
Temperature: 62 F (17 C)
Dew Point: 55 F (13 C)
Relative Humidity: 77%
Pressure (altimeter): 29.97 in. Hg (1015 hPa)
ob: LIPZ 010820Z 24010KT CAVOK 17/13 Q1015 NOSIG
cycle: 8

Station Type Date Time Source
LIPZ TAF 2022/10/01 06:21 UTC NOAA

TAF LIPZ 010500Z 0106/0212 04008KT 9999 FEW025
BECMG 0108/0110 24012KT
BECMG 0118/0120 VRB05KT

Example: see airport list